createdAt,value
2023-04-08T00:01:41.054Z,79.53
2023-04-08T00:04:14.614Z,79.52
2023-04-08T00:06:47.115Z,79.78
2023-04-08T00:09:19.540Z,79.69
2023-04-08T00:11:51.767Z,79.62
2023-04-08T00:14:24.292Z,79.61
2023-04-08T00:16:56.761Z,79.81
2023-04-08T00:19:29.277Z,79.64
2023-04-08T00:22:02.017Z,79.30
2023-04-08T00:24:34.148Z,79.32
2023-04-08T00:27:06.927Z,79.16
2023-04-08T00:29:39.182Z,79.29
2023-04-08T00:32:12.046Z,78.99
2023-04-08T00:34:44.487Z,78.94
2023-04-08T00:37:17.612Z,79.04
2023-04-08T00:39:50.677Z,79.19
2023-04-08T00:42:23.164Z,79.91
2023-04-08T00:44:55.724Z,80.53
2023-04-08T00:47:28.163Z,81.70
2023-04-08T00:50:00.994Z,81.58
2023-04-08T00:52:33.345Z,80.87
2023-04-08T00:55:06.633Z,80.75
2023-04-08T00:57:39.399Z,80.33
2023-04-08T01:00:13.884Z,80.07
2023-04-08T01:02:52.804Z,79.81
2023-04-08T01:05:38.752Z,79.36
2023-04-08T01:08:13.048Z,79.31
2023-04-08T01:10:49.486Z,79.09
2023-04-08T01:13:24.870Z,78.83
2023-04-08T01:15:57.878Z,78.76
2023-04-08T01:18:32.167Z,78.68
2023-04-08T01:21:06.470Z,78.21
2023-04-08T01:23:47.869Z,78.11
2023-04-08T01:26:26.818Z,77.96
2023-04-08T01:29:01.910Z,77.93
2023-04-08T01:31:35.281Z,77.91
2023-04-08T01:34:08.987Z,78.30
2023-04-08T01:36:42.798Z,78.27
2023-04-08T01:39:17.650Z,78.78
2023-04-08T01:41:54.909Z,78.92
2023-04-08T01:44:27.534Z,79.18
2023-04-08T01:47:00.841Z,79.02
2023-04-08T01:49:33.626Z,78.60
2023-04-08T01:52:07.899Z,77.93
2023-04-08T01:54:40.586Z,77.56
2023-04-08T01:57:17.062Z,77.05
2023-04-08T01:59:52.844Z,76.72
2023-04-08T02:02:26.738Z,76.33
2023-04-08T02:04:59.480Z,76.30
2023-04-08T02:07:32.775Z,76.18
2023-04-08T02:10:06.161Z,75.95
2023-04-08T02:12:38.850Z,75.63
2023-04-08T02:15:16.931Z,75.93
2023-04-08T02:17:51.781Z,75.87
2023-04-08T02:20:32.267Z,75.44
2023-04-08T02:23:15.068Z,75.43
2023-04-08T02:25:48.778Z,75.48
2023-04-08T02:28:22.325Z,75.40
2023-04-08T02:30:56.779Z,75.34
2023-04-08T02:33:30.354Z,75.25
2023-04-08T02:36:03.670Z,75.08
2023-04-08T02:38:36.022Z,74.99
2023-04-08T02:41:08.517Z,74.82
2023-04-08T02:43:40.945Z,74.79
2023-04-08T02:46:28.273Z,74.68
2023-04-08T02:49:01.019Z,74.72
2023-04-08T02:51:33.467Z,74.98
2023-04-08T02:54:05.881Z,74.92
2023-04-08T02:56:38.382Z,74.99
2023-04-08T02:59:10.475Z,75.18
2023-04-08T03:01:42.930Z,74.99
2023-04-08T03:04:14.978Z,74.85
2023-04-08T03:06:47.173Z,75.05
2023-04-08T03:09:19.435Z,74.97
2023-04-08T03:11:54.849Z,75.16
2023-04-08T03:14:27.394Z,74.95
2023-04-08T03:16:59.885Z,74.66
2023-04-08T03:19:32.043Z,74.81
2023-04-08T03:22:04.323Z,74.98
2023-04-08T03:24:36.775Z,74.96
2023-04-08T03:27:09.591Z,75.30
2023-04-08T03:29:42.028Z,75.43
2023-04-08T03:32:14.721Z,75.08
2023-04-08T03:34:47.011Z,74.81
2023-04-08T03:37:19.647Z,74.38
2023-04-08T03:39:51.947Z,74.28
2023-04-08T03:42:24.767Z,74.15
2023-04-08T03:44:57.466Z,73.87
2023-04-08T03:47:30.765Z,73.70
2023-04-08T03:50:03.515Z,73.48
2023-04-08T03:52:35.796Z,73.36
2023-04-08T03:55:09.465Z,73.39
2023-04-08T03:57:41.811Z,73.09
2023-04-08T04:00:16.033Z,72.95
2023-04-08T04:02:50.377Z,73.15
2023-04-08T04:05:22.741Z,73.04
2023-04-08T04:07:55.143Z,73.00
2023-04-08T04:10:27.357Z,72.79
2023-04-08T04:13:00.011Z,72.71
2023-04-08T04:15:32.923Z,72.50
2023-04-08T04:18:05.611Z,72.53
2023-04-08T04:20:40.724Z,72.53
2023-04-08T04:23:13.286Z,72.38
2023-04-08T04:25:45.910Z,72.22
2023-04-08T04:28:18.481Z,72.15
2023-04-08T04:30:50.729Z,71.98
2023-04-08T04:33:23.104Z,71.92
2023-04-08T04:35:56.128Z,71.44
2023-04-08T04:38:28.541Z,71.20
2023-04-08T04:41:01.744Z,71.00
2023-04-08T04:43:34.325Z,71.15
2023-04-08T04:46:09.096Z,71.09
2023-04-08T04:48:41.838Z,70.95
2023-04-08T04:51:14.317Z,71.07
2023-04-08T04:53:46.688Z,71.01
2023-04-08T04:56:19.504Z,70.79
2023-04-08T04:58:52.288Z,71.09
2023-04-08T05:01:24.657Z,71.18
2023-04-08T05:03:57.139Z,70.90
2023-04-08T05:06:29.462Z,70.89
2023-04-08T05:09:02.194Z,70.98
2023-04-08T05:11:34.540Z,71.19
2023-04-08T05:14:07.337Z,71.59
2023-04-08T05:16:40.347Z,72.18
2023-04-08T05:19:13.196Z,72.69
2023-04-08T05:21:45.780Z,73.35
2023-04-08T05:24:18.231Z,73.75
2023-04-08T05:26:53.385Z,73.96
2023-04-08T05:29:25.953Z,74.91
2023-04-08T05:31:58.680Z,75.33
2023-04-08T05:34:32.498Z,75.47
2023-04-08T05:37:06.339Z,75.89
2023-04-08T05:39:38.722Z,76.50
2023-04-08T05:42:12.985Z,76.98
2023-04-08T05:44:46.203Z,77.40
2023-04-08T05:47:18.719Z,77.87
2023-04-08T05:49:51.368Z,77.82
2023-04-08T05:52:23.620Z,77.83
2023-04-08T05:54:56.022Z,78.12
2023-04-08T05:57:28.444Z,78.39
2023-04-08T06:00:00.929Z,78.35
2023-04-08T06:02:33.330Z,78.50
2023-04-08T06:05:06.697Z,78.35
2023-04-08T06:07:39.040Z,78.58
2023-04-08T06:10:14.119Z,78.49
2023-04-08T06:12:46.181Z,78.14
2023-04-08T06:15:18.661Z,78.23
2023-04-08T06:17:51.692Z,78.22
2023-04-08T06:20:24.100Z,78.70
2023-04-08T06:22:56.214Z,78.41
2023-04-08T06:25:28.621Z,78.03
2023-04-08T06:28:01.042Z,77.43
2023-04-08T06:30:33.238Z,77.40
2023-04-08T06:33:05.583Z,77.52
2023-04-08T06:35:38.637Z,77.84
2023-04-08T06:38:11.052Z,77.12
2023-04-08T06:40:43.273Z,76.97
2023-04-08T06:43:15.473Z,76.86
2023-04-08T06:45:47.950Z,77.69
2023-04-08T06:48:21.060Z,77.10
2023-04-08T06:50:53.272Z,76.53
2023-04-08T06:53:27.208Z,76.70
2023-04-08T06:55:59.418Z,76.88
2023-04-08T06:58:31.447Z,76.97
2023-04-08T07:01:04.242Z,76.91
2023-04-08T07:03:37.297Z,75.63
2023-04-08T07:06:09.726Z,76.28
2023-04-08T07:08:42.478Z,75.74
2023-04-08T07:11:14.676Z,74.94
2023-04-08T07:13:46.763Z,74.35
2023-04-08T07:16:19.190Z,74.02
2023-04-08T07:18:52.177Z,74.16
2023-04-08T07:21:24.722Z,74.15
2023-04-08T07:23:57.254Z,74.45
2023-04-08T07:26:29.710Z,74.15
2023-04-08T07:29:02.179Z,74.05
2023-04-08T07:31:34.568Z,74.33
2023-04-08T07:34:06.803Z,74.36
2023-04-08T07:36:39.390Z,74.06
2023-04-08T07:39:11.486Z,73.46
2023-04-08T07:41:43.720Z,73.20
2023-04-08T07:44:17.379Z,71.91
2023-04-08T07:46:51.920Z,71.37
2023-04-08T07:49:22.856Z,71.74
2023-04-08T07:51:55.059Z,71.91
2023-04-08T07:54:27.172Z,71.88
2023-04-08T07:57:00.183Z,71.49
2023-04-08T07:59:33.062Z,71.58
2023-04-08T08:02:05.546Z,71.65
2023-04-08T08:04:37.803Z,71.89
2023-04-08T08:07:10.766Z,72.44
2023-04-08T08:09:43.012Z,72.25
2023-04-08T08:12:15.061Z,72.98
2023-04-08T08:14:47.351Z,79.27
2023-04-08T08:17:20.011Z,76.86
2023-04-08T08:19:53.061Z,73.25
2023-04-08T08:22:25.826Z,72.62
2023-04-08T08:25:00.461Z,72.95
2023-04-08T08:27:34.560Z,72.16
2023-04-08T08:30:08.300Z,71.80
2023-04-08T08:32:40.757Z,71.25
2023-04-08T08:35:13.285Z,70.40
2023-04-08T08:37:45.767Z,70.86
2023-04-08T08:40:18.336Z,70.42
2023-04-08T08:42:54.622Z,69.62
2023-04-08T08:45:27.108Z,69.98
2023-04-08T08:48:01.296Z,70.13
2023-04-08T08:50:34.315Z,69.73
2023-04-08T08:53:06.523Z,68.72
2023-04-08T08:56:05.632Z,68.80
2023-04-08T08:58:31.838Z,82.00
2023-04-08T09:01:04.031Z,73.87
2023-04-08T09:03:36.947Z,70.20
2023-04-08T09:08:41.571Z,69.24
2023-04-08T09:11:18.338Z,69.53
2023-04-08T09:13:51.856Z,69.86
2023-04-08T09:16:24.314Z,69.17
2023-04-08T09:18:57.145Z,68.84
2023-04-08T09:21:29.635Z,68.46
2023-04-08T09:24:02.342Z,68.88
2023-04-08T09:26:34.460Z,69.21
2023-04-08T09:29:24.344Z,69.97
2023-04-08T09:31:59.702Z,70.04
2023-04-08T09:34:34.409Z,69.38
2023-04-08T09:37:07.281Z,69.02
2023-04-08T09:39:39.669Z,68.96
2023-04-08T09:42:14.191Z,68.35
2023-04-08T09:44:48.758Z,69.27
2023-04-08T09:47:27.199Z,69.09
2023-04-08T09:50:07.089Z,68.85
2023-04-08T09:52:50.466Z,68.17
2023-04-08T09:55:26.253Z,67.74
2023-04-08T09:58:03.321Z,67.08
2023-04-08T10:00:44.101Z,67.57
2023-04-08T10:03:27.828Z,67.89
2023-04-08T10:06:03.377Z,67.30
2023-04-08T10:08:36.478Z,66.70
2023-04-08T10:11:08.965Z,66.39
2023-04-08T10:13:41.417Z,67.07
2023-04-08T10:16:25.973Z,66.83
2023-04-08T10:18:58.833Z,66.90
2023-04-08T10:21:39.203Z,66.87
2023-04-08T10:24:12.728Z,67.20
2023-04-08T10:26:46.356Z,68.66
2023-04-08T10:29:44.129Z,80.97
2023-04-08T10:32:32.077Z,77.40
2023-04-08T10:35:04.587Z,67.50
2023-04-08T10:37:36.945Z,65.23
2023-04-08T10:40:19.835Z,65.15
2023-04-08T10:42:57.433Z,64.54
2023-04-08T10:45:29.980Z,65.04
2023-04-08T10:48:14.493Z,64.85
2023-04-08T10:50:53.253Z,63.91
2023-04-08T10:53:30.847Z,73.23
2023-04-08T10:56:13.402Z,65.77
2023-04-08T10:58:52.824Z,64.38
2023-04-08T11:01:26.250Z,63.46
2023-04-08T11:03:59.988Z,66.72
2023-04-08T11:06:33.154Z,73.67
2023-04-08T11:09:07.089Z,72.34
2023-04-08T11:11:39.424Z,68.00
2023-04-08T11:14:11.964Z,64.14
2023-04-08T11:16:44.126Z,63.25
2023-04-08T11:19:16.970Z,61.75
2023-04-08T11:21:49.372Z,59.82
2023-04-08T11:24:22.713Z,59.73
2023-04-08T11:26:55.221Z,61.13
2023-04-08T11:29:28.117Z,59.98
2023-04-08T11:32:00.614Z,59.18
2023-04-08T11:34:32.947Z,59.83
2023-04-08T11:37:05.168Z,59.83
2023-04-08T11:39:42.612Z,61.04
2023-04-08T11:42:29.858Z,64.62
2023-04-08T11:45:02.207Z,61.86
2023-04-08T11:47:35.825Z,61.64
2023-04-08T11:50:09.901Z,60.62
2023-04-08T11:52:47.033Z,59.66
2023-04-08T11:55:28.056Z,55.56
2023-04-08T11:58:06.466Z,55.44
2023-04-08T12:00:39.504Z,54.92
2023-04-08T12:03:12.261Z,55.65
2023-04-08T12:05:44.615Z,56.42
2023-04-08T12:08:17.929Z,55.99
2023-04-08T12:10:50.089Z,55.47
2023-04-08T12:13:22.498Z,56.51
2023-04-08T12:15:54.680Z,57.39
2023-04-08T12:18:27.468Z,56.89
2023-04-08T12:20:59.917Z,57.19
2023-04-08T12:23:32.530Z,56.97
2023-04-08T12:26:05.015Z,57.42
2023-04-08T12:28:37.801Z,56.53
2023-04-08T12:31:10.495Z,54.28
2023-04-08T12:33:42.802Z,55.21
2023-04-08T12:36:15.598Z,55.42
2023-04-08T12:38:47.842Z,54.33
2023-04-08T12:41:21.895Z,54.84
2023-04-08T12:43:55.163Z,54.26
2023-04-08T12:46:28.524Z,54.78
2023-04-08T12:49:04.560Z,54.35
2023-04-08T12:51:37.905Z,53.68
2023-04-08T12:54:10.089Z,54.61
2023-04-08T12:56:43.350Z,54.56
2023-04-08T12:59:16.447Z,54.22
2023-04-08T13:01:48.804Z,50.77
2023-04-08T13:04:21.220Z,51.66
2023-04-08T13:06:53.677Z,51.29
2023-04-08T13:09:25.962Z,51.01
2023-04-08T13:11:58.333Z,51.67
2023-04-08T13:14:30.881Z,51.29
2023-04-08T13:17:03.129Z,51.74
2023-04-08T13:19:35.709Z,51.03
2023-04-08T13:22:07.891Z,53.02
2023-04-08T13:24:40.236Z,52.48
2023-04-08T13:27:12.568Z,50.57
2023-04-08T13:29:45.281Z,51.45
2023-04-08T13:32:17.507Z,51.39
2023-04-08T13:34:50.402Z,53.00
2023-04-08T13:37:22.990Z,51.10
2023-04-08T13:39:55.221Z,50.80
2023-04-08T13:42:27.372Z,50.27
2023-04-08T13:44:59.553Z,50.37
2023-04-08T13:47:32.317Z,49.60
2023-04-08T13:50:04.695Z,50.02
2023-04-08T13:52:37.107Z,48.55
2023-04-08T13:55:10.651Z,47.66
2023-04-08T13:57:43.176Z,47.21
2023-04-08T14:00:17.403Z,46.82
2023-04-08T14:02:51.086Z,46.84
2023-04-08T14:05:23.575Z,47.81
2023-04-08T14:07:55.697Z,46.46
2023-04-08T14:10:28.332Z,45.85
2023-04-08T14:13:00.624Z,46.24
2023-04-08T14:15:33.118Z,46.22
2023-04-08T14:18:07.191Z,46.30
2023-04-08T14:20:41.500Z,46.16
2023-04-08T14:23:14.270Z,46.45
2023-04-08T14:25:46.717Z,46.91
2023-04-08T14:28:19.232Z,46.30
2023-04-08T14:30:51.698Z,44.92
2023-04-08T14:33:24.119Z,46.50
2023-04-08T14:35:56.772Z,46.67
2023-04-08T14:38:29.274Z,46.60
2023-04-08T14:41:01.750Z,44.77
2023-04-08T14:43:33.959Z,45.70
2023-04-08T14:46:06.706Z,44.83
2023-04-08T14:48:39.157Z,47.02
2023-04-08T14:51:11.437Z,45.55
2023-04-08T14:53:43.943Z,46.36
2023-04-08T14:56:16.254Z,49.64
2023-04-08T14:58:48.898Z,48.84
2023-04-08T15:01:21.870Z,46.99
2023-04-08T15:03:54.119Z,47.65
2023-04-08T15:06:27.672Z,47.17
2023-04-08T15:08:59.917Z,47.53
2023-04-08T15:11:32.427Z,48.35
2023-04-08T15:14:04.562Z,49.10
2023-04-08T15:16:36.917Z,48.92
2023-04-08T15:19:09.255Z,47.06
2023-04-08T15:21:41.930Z,46.98
2023-04-08T15:24:14.247Z,47.44
2023-04-08T15:26:46.604Z,47.39
2023-04-08T15:29:19.231Z,49.74
2023-04-08T15:31:52.768Z,50.52
2023-04-08T15:34:24.824Z,49.48
2023-04-08T15:36:57.638Z,48.80
2023-04-08T15:39:29.940Z,50.89
2023-04-08T15:42:02.665Z,49.78
2023-04-08T15:44:35.432Z,51.18
2023-04-08T15:47:08.182Z,51.03
2023-04-08T15:49:41.281Z,49.97
2023-04-08T15:52:13.675Z,50.11
2023-04-08T15:54:46.281Z,49.69
2023-04-08T15:57:18.478Z,51.22
2023-04-08T15:59:50.903Z,50.49
2023-04-08T16:02:23.576Z,50.82
2023-04-08T16:04:56.078Z,51.02
2023-04-08T16:07:28.554Z,50.52
2023-04-08T16:10:01.120Z,50.49
2023-04-08T16:12:33.510Z,51.55
2023-04-08T16:15:06.778Z,49.34
2023-04-08T16:17:39.015Z,51.40
2023-04-08T16:20:12.782Z,50.33
2023-04-08T16:22:44.958Z,49.91
2023-04-08T16:25:17.335Z,50.25
2023-04-08T16:27:49.718Z,51.78
2023-04-08T16:30:22.290Z,50.64
2023-04-08T16:32:55.279Z,51.31
2023-04-08T16:35:27.595Z,53.97
2023-04-08T16:38:00.279Z,53.68
2023-04-08T16:40:33.972Z,50.10
2023-04-08T16:43:06.516Z,51.87
2023-04-08T16:45:39.114Z,52.91
2023-04-08T16:48:12.698Z,53.26
2023-04-08T16:50:44.851Z,51.70
2023-04-08T16:53:17.162Z,52.20
2023-04-08T16:55:49.272Z,50.60
2023-04-08T16:58:21.844Z,51.40
2023-04-08T17:00:54.488Z,51.34
2023-04-08T17:03:28.564Z,51.75
2023-04-08T17:06:10.582Z,52.57
2023-04-08T17:08:43.646Z,53.50
2023-04-08T17:11:16.736Z,53.36
2023-04-08T17:13:50.035Z,53.00
2023-04-08T17:16:22.337Z,53.10
2023-04-08T17:18:56.938Z,54.17
2023-04-08T17:21:29.384Z,54.32
2023-04-08T17:24:01.733Z,54.53
2023-04-08T17:26:34.173Z,54.88
2023-04-08T17:29:06.787Z,54.56
2023-04-08T17:31:40.230Z,54.61
2023-04-08T17:34:13.111Z,55.04
2023-04-08T17:36:45.982Z,55.48
2023-04-08T17:39:18.713Z,55.95
2023-04-08T17:41:50.878Z,56.93
2023-04-08T17:44:29.582Z,55.38
2023-04-08T17:47:02.365Z,54.96
2023-04-08T17:49:34.724Z,54.42
2023-04-08T17:52:07.196Z,54.55
2023-04-08T17:54:41.550Z,54.83
2023-04-08T17:57:14.270Z,54.80
2023-04-08T17:59:46.692Z,54.93
2023-04-08T18:02:19.220Z,55.10
2023-04-08T18:04:52.561Z,54.95
2023-04-08T18:07:24.800Z,54.85
2023-04-08T18:09:57.115Z,54.95
2023-04-08T18:12:30.764Z,55.38
2023-04-08T18:15:03.421Z,55.32
2023-04-08T18:17:37.333Z,55.61
2023-04-08T18:20:11.263Z,55.66
2023-04-08T18:22:43.659Z,55.89
2023-04-08T18:25:15.787Z,56.46
2023-04-08T18:27:47.958Z,57.15
2023-04-08T18:30:20.675Z,57.17
2023-04-08T18:32:53.082Z,57.20
2023-04-08T18:35:26.928Z,57.27
2023-04-08T18:37:59.364Z,58.17
2023-04-08T18:40:32.114Z,58.72
2023-04-08T18:43:05.069Z,58.45
2023-04-08T18:45:37.662Z,58.20
2023-04-08T18:48:12.349Z,58.53
2023-04-08T18:50:43.040Z,59.18
2023-04-08T18:53:15.302Z,59.64
2023-04-08T18:55:47.502Z,59.64
2023-04-08T18:58:19.689Z,59.73
2023-04-08T19:00:52.078Z,60.05
2023-04-08T19:03:26.179Z,60.44
2023-04-08T19:05:59.001Z,59.87
2023-04-08T19:08:32.083Z,59.82
2023-04-08T19:11:04.984Z,60.08
2023-04-08T19:13:37.424Z,60.31
2023-04-08T19:16:11.046Z,60.32
2023-04-08T19:18:43.229Z,60.71
2023-04-08T19:21:15.483Z,61.03
2023-04-08T19:23:49.009Z,60.95
2023-04-08T19:26:21.344Z,60.76
2023-04-08T19:28:53.476Z,60.43
2023-04-08T19:31:25.656Z,60.50
2023-04-08T19:33:57.984Z,60.92
2023-04-08T19:36:30.943Z,61.09
2023-04-08T19:39:03.684Z,60.91
2023-04-08T19:41:35.775Z,60.98
2023-04-08T19:44:07.924Z,61.15
2023-04-08T19:46:41.432Z,61.28
2023-04-08T19:49:13.696Z,61.32
2023-04-08T19:51:46.243Z,61.51
2023-04-08T19:54:18.314Z,61.77
2023-04-08T19:56:50.670Z,62.04
2023-04-08T19:59:24.968Z,62.25
2023-04-08T20:01:57.929Z,62.50
2023-04-08T20:04:30.996Z,62.77
2023-04-08T20:07:03.799Z,62.79
2023-04-08T20:09:36.162Z,63.05
2023-04-08T20:12:09.211Z,62.80
2023-04-08T20:14:45.095Z,62.77
2023-04-08T20:17:18.198Z,62.49
2023-04-08T20:19:50.345Z,62.54
2023-04-08T20:22:22.791Z,62.75
2023-04-08T20:24:55.626Z,62.75
2023-04-08T20:27:27.985Z,63.01
2023-04-08T20:30:01.352Z,63.26
2023-04-08T20:32:34.805Z,63.18
2023-04-08T20:35:07.809Z,63.50
2023-04-08T20:37:40.457Z,63.21
2023-04-08T20:40:14.963Z,63.47
2023-04-08T20:42:48.497Z,63.91
2023-04-08T20:45:20.961Z,63.96
2023-04-08T20:47:54.184Z,64.04
2023-04-08T20:50:28.563Z,64.09
2023-04-08T20:53:00.793Z,64.11
2023-04-08T20:55:32.956Z,64.02
2023-04-08T20:58:07.620Z,64.05
2023-04-08T21:00:38.311Z,63.96
2023-04-08T21:03:10.412Z,64.01
2023-04-08T21:05:43.099Z,64.10
2023-04-08T21:08:15.973Z,64.21
2023-04-08T21:10:48.196Z,64.52
2023-04-08T21:13:20.539Z,64.44
2023-04-08T21:15:52.761Z,64.31
2023-04-08T21:18:25.024Z,64.30
2023-04-08T21:20:57.775Z,64.31
2023-04-08T21:23:30.332Z,64.46
2023-04-08T21:26:03.574Z,64.30
2023-04-08T21:28:36.258Z,64.42
2023-04-08T21:31:12.569Z,64.43
2023-04-08T21:33:44.897Z,64.33
2023-04-08T21:36:17.475Z,64.32
2023-04-08T21:38:51.072Z,64.30
2023-04-08T21:41:24.354Z,64.29
2023-04-08T21:43:57.201Z,64.34
2023-04-08T21:46:29.523Z,64.38
2023-04-08T21:49:02.062Z,64.53
2023-04-08T21:51:34.770Z,64.42
2023-04-08T21:54:07.030Z,64.40
2023-04-08T21:56:39.535Z,64.49
2023-04-08T21:59:11.893Z,64.65
2023-04-08T22:01:44.618Z,64.77
2023-04-08T22:04:17.071Z,64.83
2023-04-08T22:06:49.935Z,64.96
2023-04-08T22:09:22.460Z,65.06
2023-04-08T22:11:54.901Z,65.16
2023-04-08T22:14:27.148Z,65.11
2023-04-08T22:17:00.374Z,65.09
2023-04-08T22:19:32.998Z,65.06
2023-04-08T22:22:05.413Z,64.82
2023-04-08T22:24:38.293Z,64.67
2023-04-08T22:27:11.136Z,64.72
2023-04-08T22:29:43.584Z,64.53
2023-04-08T22:32:16.286Z,64.62
2023-04-08T22:34:48.491Z,64.42
2023-04-08T22:37:21.231Z,64.55
2023-04-08T22:39:55.161Z,64.42
2023-04-08T22:42:27.453Z,64.47
2023-04-08T22:44:59.936Z,64.47
2023-04-08T22:47:32.487Z,64.80
2023-04-08T22:50:05.069Z,64.78
2023-04-08T22:52:37.218Z,64.88
2023-04-08T22:55:12.295Z,65.10
2023-04-08T22:57:44.667Z,64.78
2023-04-08T23:00:17.585Z,65.00
2023-04-08T23:02:49.765Z,65.35
2023-04-08T23:05:22.209Z,65.39
2023-04-08T23:07:54.509Z,65.70
2023-04-08T23:10:26.893Z,65.58
2023-04-08T23:12:59.063Z,65.69
2023-04-08T23:15:31.708Z,65.60
2023-04-08T23:18:04.002Z,65.63
2023-04-08T23:20:36.736Z,65.50
2023-04-08T23:23:08.820Z,65.38
2023-04-08T23:25:41.029Z,65.79
2023-04-08T23:28:13.334Z,65.96
2023-04-08T23:30:46.918Z,65.86
2023-04-08T23:33:19.250Z,65.84
2023-04-08T23:35:51.619Z,66.10
2023-04-08T23:38:23.766Z,66.36
2023-04-08T23:40:56.824Z,66.46
2023-04-08T23:43:28.923Z,66.44
2023-04-08T23:46:01.427Z,66.48
2023-04-08T23:48:33.704Z,66.40
2023-04-08T23:51:06.949Z,66.54
2023-04-08T23:53:39.208Z,66.55
2023-04-08T23:56:12.656Z,66.41
2023-04-08T23:58:44.725Z,66.48
